sensor_id;sensor_type;location;lat;lon;timestamp;pressure;altitude;pressure_sealevel;temperature;humidity
6413;BME280;3239;48.714;9.472;2022-12-18T00:01:26;99574.69;;;-9.65;100.00
6413;BME280;3239;48.714;9.472;2022-12-18T00:03:54;99576.25;;;-9.61;100.00
6413;BME280;3239;48.714;9.472;2022-12-18T00:06:21;99569.88;;;-9.82;100.00
6413;BME280;3239;48.714;9.472;2022-12-18T00:08:48;99570.28;;;-10.06;100.00
6413;BME280;3239;48.714;9.472;2022-12-18T00:11:20;99584.81;;;-9.97;100.00
6413;BME280;3239;48.714;9.472;2022-12-18T00:13:47;99581.88;;;-10.14;100.00
6413;BME280;3239;48.714;9.472;2022-12-18T00:16:15;99582.00;;;-10.07;100.00
6413;BME280;3239;48.714;9.472;2022-12-18T00:18:42;99578.34;;;-10.22;100.00
6413;BME280;3239;48.714;9.472;2022-12-18T00:21:11;99582.22;;;-10.16;100.00
6413;BME280;3239;48.714;9.472;2022-12-18T00:23:38;99574.84;;;-10.26;100.00
6413;BME280;3239;48.714;9.472;2022-12-18T00:26:11;99570.16;;;-10.13;100.00
6413;BME280;3239;48.714;9.472;2022-12-18T00:28:37;99578.69;;;-10.23;100.00
6413;BME280;3239;48.714;9.472;2022-12-18T00:31:09;99590.63;;;-10.33;100.00
6413;BME280;3239;48.714;9.472;2022-12-18T00:33:36;99594.69;;;-10.16;100.00
6413;BME280;3239;48.714;9.472;2022-12-18T00:36:07;99594.91;;;-10.02;100.00
6413;BME280;3239;48.714;9.472;2022-12-18T00:38:34;99599.94;;;-9.75;100.00
6413;BME280;3239;48.714;9.472;2022-12-18T00:41:01;99590.81;;;-9.77;100.00
6413;BME280;3239;48.714;9.472;2022-12-18T00:43:27;99593.97;;;-9.68;100.00
6413;BME280;3239;48.714;9.472;2022-12-18T00:45:53;99593.31;;;-9.62;100.00
6413;BME280;3239;48.714;9.472;2022-12-18T00:48:19;99606.38;;;-9.50;100.00
6413;BME280;3239;48.714;9.472;2022-12-18T00:50:45;99595.88;;;-9.43;100.00
6413;BME280;3239;48.714;9.472;2022-12-18T00:53:11;99600.44;;;-9.40;100.00
6413;BME280;3239;48.714;9.472;2022-12-18T00:55:39;99609.84;;;-9.46;100.00
6413;BME280;3239;48.714;9.472;2022-12-18T00:58:05;99605.03;;;-9.63;100.00
6413;BME280;3239;48.714;9.472;2022-12-18T01:00:30;99610.84;;;-9.80;100.00
6413;BME280;3239;48.714;9.472;2022-12-18T01:02:56;99598.81;;;-9.96;100.00
6413;BME280;3239;48.714;9.472;2022-12-18T01:05:22;99589.44;;;-9.90;100.00
6413;BME280;3239;48.714;9.472;2022-12-18T01:07:48;99590.41;;;-10.02;100.00
6413;BME280;3239;48.714;9.472;2022-12-18T01:10:14;99598.84;;;-9.93;100.00
6413;BME280;3239;48.714;9.472;2022-12-18T01:12:39;99600.34;;;-9.95;100.00
6413;BME280;3239;48.714;9.472;2022-12-18T01:15:06;99601.47;;;-9.96;100.00
6413;BME280;3239;48.714;9.472;2022-12-18T01:17:33;99597.34;;;-9.94;100.00
6413;BME280;3239;48.714;9.472;2022-12-18T01:19:59;99590.25;;;-9.86;100.00
6413;BME280;3239;48.714;9.472;2022-12-18T01:22:24;99591.38;;;-9.87;100.00
6413;BME280;3239;48.714;9.472;2022-12-18T01:24:50;99600.56;;;-9.81;100.00
6413;BME280;3239;48.714;9.472;2022-12-18T01:27:16;99603.75;;;-9.95;100.00
6413;BME280;3239;48.714;9.472;2022-12-18T01:29:42;99607.94;;;-9.94;100.00
6413;BME280;3239;48.714;9.472;2022-12-18T01:32:08;99608.09;;;-10.09;100.00
6413;BME280;3239;48.714;9.472;2022-12-18T01:34:37;99610.03;;;-10.06;100.00
6413;BME280;3239;48.714;9.472;2022-12-18T01:37:06;99607.53;;;-10.18;100.00
6413;BME280;3239;48.714;9.472;2022-12-18T01:39:33;99626.34;;;-10.04;100.00
6413;BME280;3239;48.714;9.472;2022-12-18T01:42:13;99622.53;;;-10.03;100.00
6413;BME280;3239;48.714;9.472;2022-12-18T01:45:01;99624.38;;;-9.85;100.00
6413;BME280;3239;48.714;9.472;2022-12-18T01:47:52;99625.06;;;-9.65;100.00
6413;BME280;3239;48.714;9.472;2022-12-18T01:50:38;99627.81;;;-9.58;100.00
6413;BME280;3239;48.714;9.472;2022-12-18T01:53:17;99636.31;;;-9.49;100.00
6413;BME280;3239;48.714;9.472;2022-12-18T01:55:56;99631.66;;;-9.56;100.00
6413;BME280;3239;48.714;9.472;2022-12-18T01:59:02;99623.84;;;-9.71;100.00
6413;BME280;3239;48.714;9.472;2022-12-18T02:01:31;99628.06;;;-9.67;100.00
6413;BME280;3239;48.714;9.472;2022-12-18T02:04:25;99624.72;;;-9.86;100.00
6413;BME280;3239;48.714;9.472;2022-12-18T02:10:33;99631.16;;;-9.87;100.00
6413;BME280;3239;48.714;9.472;2022-12-18T02:12:56;99632.38;;;-9.81;100.00
6413;BME280;3239;48.714;9.472;2022-12-18T02:18:30;99614.84;;;-9.89;100.00
6413;BME280;3239;48.714;9.472;2022-12-18T02:26:32;99621.97;;;-9.93;100.00
6413;BME280;3239;48.714;9.472;2022-12-18T02:29:05;99611.56;;;-10.05;100.00
6413;BME280;3239;48.714;9.472;2022-12-18T02:31:54;99627.84;;;-10.03;100.00
6413;BME280;3239;48.714;9.472;2022-12-18T02:34:26;99634.59;;;-9.87;100.00
6413;BME280;3239;48.714;9.472;2022-12-18T02:36:54;99644.28;;;-9.94;100.00
6413;BME280;3239;48.714;9.472;2022-12-18T02:39:22;99632.00;;;-10.06;100.00
6413;BME280;3239;48.714;9.472;2022-12-18T02:41:49;99630.25;;;-9.95;100.00
6413;BME280;3239;48.714;9.472;2022-12-18T02:44:16;99622.25;;;-9.98;100.00
6413;BME280;3239;48.714;9.472;2022-12-18T02:46:59;99625.56;;;-10.05;100.00
6413;BME280;3239;48.714;9.472;2022-12-18T02:58:26;99652.31;;;-9.91;100.00
6413;BME280;3239;48.714;9.472;2022-12-18T03:01:21;99663.06;;;-10.03;100.00
6413;BME280;3239;48.714;9.472;2022-12-18T03:04:04;99655.94;;;-9.99;100.00
6413;BME280;3239;48.714;9.472;2022-12-18T03:06:43;99646.78;;;-10.05;100.00
6413;BME280;3239;48.714;9.472;2022-12-18T03:09:17;99656.88;;;-9.88;100.00
6413;BME280;3239;48.714;9.472;2022-12-18T03:11:52;99656.88;;;-9.88;100.00
6413;BME280;3239;48.714;9.472;2022-12-18T03:14:38;99641.03;;;-9.84;100.00
6413;BME280;3239;48.714;9.472;2022-12-18T03:17:10;99646.25;;;-9.69;100.00
6413;BME280;3239;48.714;9.472;2022-12-18T03:19:38;99649.47;;;-9.56;100.00
6413;BME280;3239;48.714;9.472;2022-12-18T03:22:07;99645.66;;;-9.81;100.00
6413;BME280;3239;48.714;9.472;2022-12-18T03:24:34;99636.34;;;-9.94;100.00
6413;BME280;3239;48.714;9.472;2022-12-18T03:27:07;99637.63;;;-10.07;100.00
6413;BME280;3239;48.714;9.472;2022-12-18T03:29:50;99649.66;;;-10.13;100.00
6413;BME280;3239;48.714;9.472;2022-12-18T03:33:05;99635.56;;;-10.17;100.00
6413;BME280;3239;48.714;9.472;2022-12-18T03:35:37;99648.88;;;-10.14;100.00
6413;BME280;3239;48.714;9.472;2022-12-18T03:38:05;99648.41;;;-10.19;100.00
6413;BME280;3239;48.714;9.472;2022-12-18T03:46:30;99658.78;;;-10.30;100.00
6413;BME280;3239;48.714;9.472;2022-12-18T03:49:15;99643.19;;;-10.35;100.00
6413;BME280;3239;48.714;9.472;2022-12-18T03:52:00;99645.22;;;-10.28;100.00
6413;BME280;3239;48.714;9.472;2022-12-18T03:54:27;99645.22;;;-10.28;100.00
6413;BME280;3239;48.714;9.472;2022-12-18T03:57:04;99643.63;;;-10.33;100.00
6413;BME280;3239;48.714;9.472;2022-12-18T03:59:33;99651.13;;;-10.35;100.00
6413;BME280;3239;48.714;9.472;2022-12-18T04:02:01;99657.31;;;-10.27;100.00
6413;BME280;3239;48.714;9.472;2022-12-18T04:04:30;99649.88;;;-10.41;100.00
6413;BME280;3239;48.714;9.472;2022-12-18T04:06:57;99653.31;;;-10.40;100.00
6413;BME280;3239;48.714;9.472;2022-12-18T04:09:24;99653.09;;;-10.32;100.00
6413;BME280;3239;48.714;9.472;2022-12-18T04:11:51;99642.78;;;-10.37;100.00
6413;BME280;3239;48.714;9.472;2022-12-18T04:14:17;99645.97;;;-10.47;100.00
6413;BME280;3239;48.714;9.472;2022-12-18T04:16:43;99640.63;;;-10.50;100.00
6413;BME280;3239;48.714;9.472;2022-12-18T04:19:09;99645.63;;;-10.45;100.00
6413;BME280;3239;48.714;9.472;2022-12-18T04:21:35;99645.69;;;-10.61;100.00
6413;BME280;3239;48.714;9.472;2022-12-18T04:24:00;99633.22;;;-10.60;100.00
6413;BME280;3239;48.714;9.472;2022-12-18T04:26:26;99632.47;;;-10.80;100.00
6413;BME280;3239;48.714;9.472;2022-12-18T04:28:52;99623.81;;;-10.96;100.00
6413;BME280;3239;48.714;9.472;2022-12-18T04:31:18;99619.00;;;-10.90;100.00
6413;BME280;3239;48.714;9.472;2022-12-18T04:33:43;99615.81;;;-10.99;100.00
6413;BME280;3239;48.714;9.472;2022-12-18T04:36:09;99625.75;;;-10.93;100.00
6413;BME280;3239;48.714;9.472;2022-12-18T04:38:35;99627.72;;;-10.90;100.00
6413;BME280;3239;48.714;9.472;2022-12-18T04:41:00;99624.25;;;-10.75;100.00
6413;BME280;3239;48.714;9.472;2022-12-18T04:43:26;99641.38;;;-10.69;100.00
6413;BME280;3239;48.714;9.472;2022-12-18T04:45:52;99645.00;;;-10.77;100.00
6413;BME280;3239;48.714;9.472;2022-12-18T04:48:18;99651.78;;;-10.60;100.00
6413;BME280;3239;48.714;9.472;2022-12-18T04:50:43;99654.81;;;-10.58;100.00
6413;BME280;3239;48.714;9.472;2022-12-18T04:53:09;99655.25;;;-10.56;100.00
6413;BME280;3239;48.714;9.472;2022-12-18T04:55:35;99636.72;;;-10.56;100.00
6413;BME280;3239;48.714;9.472;2022-12-18T04:58:00;99648.78;;;-10.59;100.00
6413;BME280;3239;48.714;9.472;2022-12-18T05:00:26;99641.97;;;-10.60;100.00
6413;BME280;3239;48.714;9.472;2022-12-18T05:02:52;99645.69;;;-10.61;100.00
6413;BME280;3239;48.714;9.472;2022-12-18T05:05:18;99634.69;;;-10.63;100.00
6413;BME280;3239;48.714;9.472;2022-12-18T05:07:44;99626.97;;;-10.52;100.00
6413;BME280;3239;48.714;9.472;2022-12-18T05:10:09;99632.00;;;-10.47;100.00
6413;BME280;3239;48.714;9.472;2022-12-18T05:12:35;99628.63;;;-10.44;100.00
6413;BME280;3239;48.714;9.472;2022-12-18T05:15:21;99620.22;;;-10.50;100.00
6413;BME280;3239;48.714;9.472;2022-12-18T05:17:47;99614.91;;;-10.69;100.00
6413;BME280;3239;48.714;9.472;2022-12-18T05:20:12;99616.09;;;-10.85;100.00
6413;BME280;3239;48.714;9.472;2022-12-18T05:22:38;99605.50;;;-10.85;100.00
6413;BME280;3239;48.714;9.472;2022-12-18T05:25:04;99610.66;;;-10.92;100.00
6413;BME280;3239;48.714;9.472;2022-12-18T05:27:30;99612.13;;;-10.95;100.00
6413;BME280;3239;48.714;9.472;2022-12-18T05:29:55;99616.44;;;-10.87;100.00
6413;BME280;3239;48.714;9.472;2022-12-18T05:32:21;99608.25;;;-10.82;100.00
6413;BME280;3239;48.714;9.472;2022-12-18T05:34:47;99609.53;;;-10.91;100.00
6413;BME280;3239;48.714;9.472;2022-12-18T05:37:13;99608.16;;;-10.85;100.00
6413;BME280;3239;48.714;9.472;2022-12-18T05:39:38;99604.41;;;-10.84;100.00
6413;BME280;3239;48.714;9.472;2022-12-18T05:42:04;99595.97;;;-10.90;100.00
6413;BME280;3239;48.714;9.472;2022-12-18T05:44:30;99591.63;;;-10.98;100.00
6413;BME280;3239;48.714;9.472;2022-12-18T05:46:55;99596.56;;;-10.96;100.00
6413;BME280;3239;48.714;9.472;2022-12-18T05:49:21;99605.78;;;-10.90;100.00
6413;BME280;3239;48.714;9.472;2022-12-18T05:51:47;99598.41;;;-10.81;100.00
6413;BME280;3239;48.714;9.472;2022-12-18T05:54:12;99606.94;;;-10.88;100.00
6413;BME280;3239;48.714;9.472;2022-12-18T05:56:38;99600.75;;;-10.95;100.00
6413;BME280;3239;48.714;9.472;2022-12-18T05:59:04;99588.38;;;-10.91;100.00
6413;BME280;3239;48.714;9.472;2022-12-18T06:01:30;99591.41;;;-11.08;100.00
6413;BME280;3239;48.714;9.472;2022-12-18T06:03:55;99588.72;;;-11.27;100.00
6413;BME280;3239;48.714;9.472;2022-12-18T06:06:27;99584.81;;;-11.18;100.00
6413;BME280;3239;48.714;9.472;2022-12-18T06:08:55;99585.28;;;-11.12;100.00
6413;BME280;3239;48.714;9.472;2022-12-18T06:11:24;99590.47;;;-11.35;100.00
6413;BME280;3239;48.714;9.472;2022-12-18T06:13:52;99576.00;;;-11.56;100.00
6413;BME280;3239;48.714;9.472;2022-12-18T06:16:18;99580.66;;;-11.69;100.00
6413;BME280;3239;48.714;9.472;2022-12-18T06:18:44;99569.50;;;-11.62;100.00
6413;BME280;3239;48.714;9.472;2022-12-18T06:21:10;99559.97;;;-11.48;100.00
6413;BME280;3239;48.714;9.472;2022-12-18T06:23:35;99562.28;;;-11.46;100.00
6413;BME280;3239;48.714;9.472;2022-12-18T06:26:06;99558.09;;;-11.47;100.00
6413;BME280;3239;48.714;9.472;2022-12-18T06:28:32;99557.09;;;-11.58;100.00
6413;BME280;3239;48.714;9.472;2022-12-18T06:30:58;99562.56;;;-11.67;100.00
6413;BME280;3239;48.714;9.472;2022-12-18T06:33:27;99557.50;;;-11.56;100.00
6413;BME280;3239;48.714;9.472;2022-12-18T06:35:54;99558.09;;;-11.47;100.00
6413;BME280;3239;48.714;9.472;2022-12-18T06:38:25;99552.09;;;-11.44;100.00
6413;BME280;3239;48.714;9.472;2022-12-18T06:40:51;99547.34;;;-11.54;100.00
6413;BME280;3239;48.714;9.472;2022-12-18T06:43:17;99548.28;;;-11.66;100.00
6413;BME280;3239;48.714;9.472;2022-12-18T06:45:42;99539.69;;;-11.94;100.00
6413;BME280;3239;48.714;9.472;2022-12-18T06:48:08;99542.09;;;-12.04;100.00
6413;BME280;3239;48.714;9.472;2022-12-18T06:50:34;99554.44;;;-12.08;100.00
6413;BME280;3239;48.714;9.472;2022-12-18T06:53:00;99555.63;;;-12.06;100.00
6413;BME280;3239;48.714;9.472;2022-12-18T06:55:26;99558.28;;;-12.06;100.00
6413;BME280;3239;48.714;9.472;2022-12-18T06:57:51;99557.75;;;-11.96;100.00
6413;BME280;3239;48.714;9.472;2022-12-18T07:00:17;99566.03;;;-11.97;100.00
6413;BME280;3239;48.714;9.472;2022-12-18T07:02:43;99567.28;;;-11.91;100.00
6413;BME280;3239;48.714;9.472;2022-12-18T07:05:09;99567.75;;;-11.89;100.00
6413;BME280;3239;48.714;9.472;2022-12-18T07:07:35;99562.84;;;-11.72;100.00
6413;BME280;3239;48.714;9.472;2022-12-18T07:10:01;99559.28;;;-11.79;100.00
6413;BME280;3239;48.714;9.472;2022-12-18T07:12:27;99558.69;;;-11.88;100.00
6413;BME280;3239;48.714;9.472;2022-12-18T07:14:53;99557.31;;;-11.82;100.00
6413;BME280;3239;48.714;9.472;2022-12-18T07:17:18;99546.91;;;-11.75;100.00
6413;BME280;3239;48.714;9.472;2022-12-18T07:19:44;99565.31;;;-11.79;100.00
6413;BME280;3239;48.714;9.472;2022-12-18T07:22:10;99569.38;;;-12.00;100.00
6413;BME280;3239;48.714;9.472;2022-12-18T07:24:36;99564.06;;;-12.00;100.00
6413;BME280;3239;48.714;9.472;2022-12-18T07:27:02;99580.50;;;-11.91;100.00
6413;BME280;3239;48.714;9.472;2022-12-18T07:29:28;99577.78;;;-11.79;100.00
6413;BME280;3239;48.714;9.472;2022-12-18T07:31:54;99570.53;;;-11.82;100.00
6413;BME280;3239;48.714;9.472;2022-12-18T07:34:19;99571.41;;;-11.78;100.00
6413;BME280;3239;48.714;9.472;2022-12-18T07:36:45;99569.84;;;-11.64;100.00
6413;BME280;3239;48.714;9.472;2022-12-18T07:39:11;99570.13;;;-11.50;100.00
6413;BME280;3239;48.714;9.472;2022-12-18T07:41:37;99572.59;;;-11.41;100.00
6413;BME280;3239;48.714;9.472;2022-12-18T07:44:03;99570.94;;;-11.30;100.00
6413;BME280;3239;48.714;9.472;2022-12-18T07:46:29;99568.78;;;-11.06;100.00
6413;BME280;3239;48.714;9.472;2022-12-18T07:48:55;99566.69;;;-11.16;100.00
6413;BME280;3239;48.714;9.472;2022-12-18T07:51:20;99564.47;;;-10.95;100.00
6413;BME280;3239;48.714;9.472;2022-12-18T07:53:47;99562.13;;;-10.81;100.00
6413;BME280;3239;48.714;9.472;2022-12-18T07:56:12;99565.91;;;-10.40;100.00
6413;BME280;3239;48.714;9.472;2022-12-18T07:58:38;99563.38;;;-10.75;100.00
6413;BME280;3239;48.714;9.472;2022-12-18T08:01:09;99562.53;;;-10.79;100.00
6413;BME280;3239;48.714;9.472;2022-12-18T08:03:36;99555.50;;;-10.07;100.00
6413;BME280;3239;48.714;9.472;2022-12-18T08:06:04;99558.81;;;-9.88;100.00
6413;BME280;3239;48.714;9.472;2022-12-18T08:08:31;99556.91;;;-9.65;100.00
6413;BME280;3239;48.714;9.472;2022-12-18T08:10:58;99553.72;;;-8.92;100.00
6413;BME280;3239;48.714;9.472;2022-12-18T08:13:24;99556.38;;;-8.92;100.00
6413;BME280;3239;48.714;9.472;2022-12-18T08:16:07;99560.19;;;-8.90;100.00
6413;BME280;3239;48.714;9.472;2022-12-18T08:18:35;99550.72;;;-8.87;100.00
6413;BME280;3239;48.714;9.472;2022-12-18T08:21:11;99533.22;;;-8.59;100.00
6413;BME280;3239;48.714;9.472;2022-12-18T08:23:38;99532.44;;;-9.25;100.00
6413;BME280;3239;48.714;9.472;2022-12-18T08:26:05;99522.00;;;-9.93;100.00
6413;BME280;3239;48.714;9.472;2022-12-18T08:28:31;99509.91;;;-10.16;100.00
6413;BME280;3239;48.714;9.472;2022-12-18T08:30:57;99518.34;;;-10.11;100.00
6413;BME280;3239;48.714;9.472;2022-12-18T08:33:23;99505.88;;;-10.10;100.00
6413;BME280;3239;48.714;9.472;2022-12-18T08:35:49;99510.41;;;-10.11;100.00
6413;BME280;3239;48.714;9.472;2022-12-18T08:38:14;99501.84;;;-10.23;100.00
6413;BME280;3239;48.714;9.472;2022-12-18T08:40:40;99513.38;;;-10.35;100.00
6413;BME280;3239;48.714;9.472;2022-12-18T08:43:10;99502.25;;;-9.95;100.00
6413;BME280;3239;48.714;9.472;2022-12-18T08:45:55;99500.00;;;-9.97;100.00
6413;BME280;3239;48.714;9.472;2022-12-18T08:48:21;99501.84;;;-9.45;100.00
6413;BME280;3239;48.714;9.472;2022-12-18T08:50:57;99505.34;;;-8.75;100.00
6413;BME280;3239;48.714;9.472;2022-12-18T08:53:23;99509.03;;;-8.03;100.00
6413;BME280;3239;48.714;9.472;2022-12-18T08:55:49;99502.94;;;-8.51;100.00
6413;BME280;3239;48.714;9.472;2022-12-18T08:58:15;99507.56;;;-9.14;100.00
6413;BME280;3239;48.714;9.472;2022-12-18T09:00:41;99496.81;;;-9.24;100.00
6413;BME280;3239;48.714;9.472;2022-12-18T09:03:16;99495.47;;;-9.41;100.00
6413;BME280;3239;48.714;9.472;2022-12-18T09:05:43;99498.09;;;-9.11;100.00
6413;BME280;3239;48.714;9.472;2022-12-18T09:08:11;99504.41;;;-8.93;100.00
6413;BME280;3239;48.714;9.472;2022-12-18T09:10:45;99496.56;;;-8.79;100.00
6413;BME280;3239;48.714;9.472;2022-12-18T09:13:12;99479.84;;;-9.16;100.00
6413;BME280;3239;48.714;9.472;2022-12-18T09:15:50;99482.78;;;-8.55;100.00
6413;BME280;3239;48.714;9.472;2022-12-18T09:18:19;99484.28;;;-8.11;100.00
6413;BME280;3239;48.714;9.472;2022-12-18T09:20:45;99478.28;;;-8.01;100.00
6413;BME280;3239;48.714;9.472;2022-12-18T09:23:12;99469.50;;;-8.08;100.00
6413;BME280;3239;48.714;9.472;2022-12-18T09:25:38;99476.63;;;-8.19;100.00
6413;BME280;3239;48.714;9.472;2022-12-18T09:28:09;99463.81;;;-8.54;100.00
6413;BME280;3239;48.714;9.472;2022-12-18T09:30:38;99478.16;;;-7.61;100.00
6413;BME280;3239;48.714;9.472;2022-12-18T09:33:04;99477.75;;;-7.66;100.00
6413;BME280;3239;48.714;9.472;2022-12-18T09:35:30;99464.81;;;-7.68;100.00
6413;BME280;3239;48.714;9.472;2022-12-18T09:37:56;99461.25;;;-7.89;100.00
6413;BME280;3239;48.714;9.472;2022-12-18T09:40:25;99464.66;;;-7.28;100.00
6413;BME280;3239;48.714;9.472;2022-12-18T09:42:59;99470.50;;;-6.80;100.00
6413;BME280;3239;48.714;9.472;2022-12-18T09:45:26;99454.94;;;-6.43;100.00
6413;BME280;3239;48.714;9.472;2022-12-18T09:47:54;99444.28;;;-6.05;100.00
6413;BME280;3239;48.714;9.472;2022-12-18T09:50:31;99453.97;;;-5.21;100.00
6413;BME280;3239;48.714;9.472;2022-12-18T09:53:06;99440.13;;;-6.09;100.00
6413;BME280;3239;48.714;9.472;2022-12-18T09:55:41;99444.06;;;-5.28;100.00
6413;BME280;3239;48.714;9.472;2022-12-18T10:00:52;99438.41;;;-5.44;100.00
6413;BME280;3239;48.714;9.472;2022-12-18T10:03:18;99433.47;;;-5.49;100.00
6413;BME280;3239;48.714;9.472;2022-12-18T10:06:27;99420.53;;;-5.54;100.00
6413;BME280;3239;48.714;9.472;2022-12-18T10:15:34;99402.34;;;-3.99;100.00
6413;BME280;3239;48.714;9.472;2022-12-18T10:20:56;99393.97;;;-3.64;100.00
6413;BME280;3239;48.714;9.472;2022-12-18T10:23:58;99400.09;;;-4.04;100.00
6413;BME280;3239;48.714;9.472;2022-12-18T10:26:28;99394.63;;;-3.56;100.00
6413;BME280;3239;48.714;9.472;2022-12-18T10:28:54;99398.41;;;-3.54;100.00
6413;BME280;3239;48.714;9.472;2022-12-18T10:31:24;99401.22;;;-3.31;100.00
6413;BME280;3239;48.714;9.472;2022-12-18T10:33:50;99402.00;;;-3.67;100.00
6413;BME280;3239;48.714;9.472;2022-12-18T10:36:16;99402.19;;;-3.18;100.00
6413;BME280;3239;48.714;9.472;2022-12-18T10:38:42;99406.97;;;-2.76;100.00
6413;BME280;3239;48.714;9.472;2022-12-18T10:43:47;99401.13;;;-1.17;100.00
6413;BME280;3239;48.714;9.472;2022-12-18T10:46:19;99398.03;;;0.98;100.00
6413;BME280;3239;48.714;9.472;2022-12-18T10:48:54;99404.63;;;0.97;100.00
6413;BME280;3239;48.714;9.472;2022-12-18T10:51:32;99393.72;;;0.18;100.00
6413;BME280;3239;48.714;9.472;2022-12-18T10:54:21;99396.13;;;0.98;100.00
6413;BME280;3239;48.714;9.472;2022-12-18T10:56:48;99400.13;;;-0.72;100.00
6413;BME280;3239;48.714;9.472;2022-12-18T10:59:16;99402.56;;;-0.77;100.00
6413;BME280;3239;48.714;9.472;2022-12-18T11:01:57;99397.09;;;-1.44;100.00
6413;BME280;3239;48.714;9.472;2022-12-18T11:04:30;99396.00;;;-0.76;100.00
6413;BME280;3239;48.714;9.472;2022-12-18T11:07:00;99409.25;;;-0.65;100.00
6413;BME280;3239;48.714;9.472;2022-12-18T11:11:57;99403.13;;;0.26;100.00
6413;BME280;3239;48.714;9.472;2022-12-18T11:14:31;99396.22;;;-0.19;100.00
6413;BME280;3239;48.714;9.472;2022-12-18T11:16:59;99401.06;;;0.46;100.00
6413;BME280;3239;48.714;9.472;2022-12-18T11:19:35;99381.75;;;1.14;100.00
6413;BME280;3239;48.714;9.472;2022-12-18T11:22:24;99376.50;;;0.00;100.00
6413;BME280;3239;48.714;9.472;2022-12-18T11:27:39;99379.38;;;1.16;100.00
6413;BME280;3239;48.714;9.472;2022-12-18T11:30:35;99368.00;;;1.71;100.00
6413;BME280;3239;48.714;9.472;2022-12-18T11:33:20;99351.19;;;2.22;100.00
6413;BME280;3239;48.714;9.472;2022-12-18T11:35:58;99348.94;;;1.28;100.00
6413;BME280;3239;48.714;9.472;2022-12-18T11:38:37;99343.59;;;2.51;100.00
6413;BME280;3239;48.714;9.472;2022-12-18T11:41:39;99345.09;;;2.09;100.00
6413;BME280;3239;48.714;9.472;2022-12-18T11:44:30;99346.53;;;2.66;100.00
6413;BME280;3239;48.714;9.472;2022-12-18T11:47:11;99346.34;;;2.17;100.00
6413;BME280;3239;48.714;9.472;2022-12-18T11:49:41;99343.47;;;3.16;100.00
6413;BME280;3239;48.714;9.472;2022-12-18T11:52:23;99336.38;;;1.59;100.00
6413;BME280;3239;48.714;9.472;2022-12-18T11:54:52;99338.00;;;0.56;100.00
6413;BME280;3239;48.714;9.472;2022-12-18T12:00:18;99324.22;;;1.17;100.00
6413;BME280;3239;48.714;9.472;2022-12-18T12:03:23;99323.84;;;2.42;100.00
6413;BME280;3239;48.714;9.472;2022-12-18T12:16:59;99323.19;;;1.61;100.00
6413;BME280;3239;48.714;9.472;2022-12-18T12:19:38;99318.91;;;2.40;100.00
6413;BME280;3239;48.714;9.472;2022-12-18T12:25:37;99296.28;;;0.86;100.00
6413;BME280;3239;48.714;9.472;2022-12-18T12:34:26;99306.75;;;1.68;100.00
6413;BME280;3239;48.714;9.472;2022-12-18T12:39:38;99303.97;;;1.59;100.00
6413;BME280;3239;48.714;9.472;2022-12-18T12:42:49;99301.44;;;1.05;100.00
6413;BME280;3239;48.714;9.472;2022-12-18T12:48:33;99304.94;;;1.65;100.00
6413;BME280;3239;48.714;9.472;2022-12-18T12:51:16;99299.28;;;1.13;100.00
6413;BME280;3239;48.714;9.472;2022-12-18T12:53:43;99298.41;;;0.66;100.00
6413;BME280;3239;48.714;9.472;2022-12-18T12:56:14;99304.56;;;0.66;100.00
6413;BME280;3239;48.714;9.472;2022-12-18T13:05:01;99303.97;;;0.34;100.00
6413;BME280;3239;48.714;9.472;2022-12-18T13:15:46;99325.78;;;0.11;100.00
6413;BME280;3239;48.714;9.472;2022-12-18T13:18:21;99329.44;;;0.45;100.00
6413;BME280;3239;48.714;9.472;2022-12-18T13:23:34;99332.16;;;0.17;100.00
6413;BME280;3239;48.714;9.472;2022-12-18T13:34:26;99337.59;;;0.95;100.00
6413;BME280;3239;48.714;9.472;2022-12-18T13:36:54;99336.19;;;1.41;100.00
6413;BME280;3239;48.714;9.472;2022-12-18T13:39:26;99325.94;;;0.86;100.00
6413;BME280;3239;48.714;9.472;2022-12-18T13:44:39;99324.69;;;0.08;100.00
6413;BME280;3239;48.714;9.472;2022-12-18T13:47:32;99328.78;;;-0.16;100.00
6413;BME280;3239;48.714;9.472;2022-12-18T13:50:09;99326.00;;;-0.12;100.00
6413;BME280;3239;48.714;9.472;2022-12-18T13:52:37;99322.88;;;0.46;100.00
6413;BME280;3239;48.714;9.472;2022-12-18T13:55:14;99316.97;;;-0.06;100.00
6413;BME280;3239;48.714;9.472;2022-12-18T13:57:41;99313.56;;;-0.22;100.00
6413;BME280;3239;48.714;9.472;2022-12-18T14:00:30;99317.59;;;-0.14;100.00
6413;BME280;3239;48.714;9.472;2022-12-18T14:02:58;99319.22;;;-0.32;100.00
6413;BME280;3239;48.714;9.472;2022-12-18T14:05:29;99325.00;;;-0.18;100.00
6413;BME280;3239;48.714;9.472;2022-12-18T14:08:03;99324.03;;;-0.56;100.00
6413;BME280;3239;48.714;9.472;2022-12-18T14:10:30;99334.41;;;-0.54;100.00
6413;BME280;3239;48.714;9.472;2022-12-18T14:12:57;99332.59;;;-0.29;100.00
6413;BME280;3239;48.714;9.472;2022-12-18T14:15:34;99334.47;;;-0.42;100.00
6413;BME280;3239;48.714;9.472;2022-12-18T14:20:49;99345.91;;;-0.54;100.00
6413;BME280;3239;48.714;9.472;2022-12-18T14:23:40;99344.88;;;-0.92;100.00
6413;BME280;3239;48.714;9.472;2022-12-18T14:26:31;99340.03;;;-1.16;100.00
6413;BME280;3239;48.714;9.472;2022-12-18T14:29:19;99349.66;;;-0.99;100.00
6413;BME280;3239;48.714;9.472;2022-12-18T14:31:46;99354.06;;;-1.25;100.00
6413;BME280;3239;48.714;9.472;2022-12-18T14:34:16;99353.59;;;-1.39;100.00
6413;BME280;3239;48.714;9.472;2022-12-18T14:36:52;99356.63;;;-1.57;100.00
6413;BME280;3239;48.714;9.472;2022-12-18T14:39:18;99351.66;;;-1.78;100.00
6413;BME280;3239;48.714;9.472;2022-12-18T14:41:44;99358.78;;;-1.68;100.00
6413;BME280;3239;48.714;9.472;2022-12-18T14:44:12;99375.34;;;-1.92;100.00
6413;BME280;3239;48.714;9.472;2022-12-18T14:46:39;99369.34;;;-2.00;100.00
6413;BME280;3239;48.714;9.472;2022-12-18T14:49:33;99377.34;;;-1.96;100.00
6413;BME280;3239;48.714;9.472;2022-12-18T14:52:15;99374.88;;;-2.10;100.00
6413;BME280;3239;48.714;9.472;2022-12-18T14:54:46;99385.34;;;-2.16;100.00
6413;BME280;3239;48.714;9.472;2022-12-18T14:57:25;99380.38;;;-2.40;100.00
6413;BME280;3239;48.714;9.472;2022-12-18T15:00:06;99384.75;;;-2.50;100.00
6413;BME280;3239;48.714;9.472;2022-12-18T15:02:35;99387.56;;;-2.57;100.00
6413;BME280;3239;48.714;9.472;2022-12-18T15:05:14;99390.28;;;-2.60;100.00
6413;BME280;3239;48.714;9.472;2022-12-18T15:07:45;99393.13;;;-2.71;100.00
6413;BME280;3239;48.714;9.472;2022-12-18T15:10:31;99390.50;;;-2.74;100.00
6413;BME280;3239;48.714;9.472;2022-12-18T15:20:32;99399.72;;;-3.05;100.00
6413;BME280;3239;48.714;9.472;2022-12-18T15:22:59;99407.47;;;-3.11;100.00